This is the latest recevied weather packets stored in our database for station/object KC7YCE. If no packets are shown the sender has not sent any weather packets the latest 1 day(s).
| Time | Temp. | Humidity | Pressure | Rain* | Wind** | Luminosity | Snow |
|---|---|---|---|---|---|---|---|
| 1778094510 | 3.33° C | 52% | 1022.9 hPa | 0 mm | - | - | - |
| 1778090879 | 1.67° C | 58% | 1022.6 hPa | 0 mm | - | - | - |
| 1778090249 | 1.67° C | 59% | 1022.4 hPa | 0 mm | - | - | - |
| 1778089049 | 1.67° C | 66% | 1022.3 hPa | 0 mm | - | - | - |
| 1778087220 | 1.11° C | 74% | 1022.1 hPa | 0 mm | - | - | - |
| 1778086619 | 0.56° C | 72% | 1022 hPa | 0 mm | - | - | - |
| 1778086019 | 0° C | 73% | 1022 hPa | 0 mm | - | - | - |
| 1778081159 | -3.33° C | 90% | 1021.7 hPa | 0 mm | - | - | - |
| 1778076928 | -5° C | 94% | 1021.3 hPa | 0 mm | - | - | - |
| 1778076328 | -5.56° C | 93% | 1021.2 hPa | 0 mm | - | - | - |
| 1778075728 | -5.56° C | 93% | 1021.1 hPa | 0 mm | - | - | - |
| 1778075098 | -6.11° C | 94% | 1021.1 hPa | 0 mm | - | - | - |
| 1778074468 | -6.11° C | 94% | 1021 hPa | 0 mm | - | - | - |
| 1778073838 | -6.11° C | 94% | 1020.9 hPa | 0 mm | - | - | - |
| 1778070748 | -6.67° C | 94% | 1020.2 hPa | 0 mm | - | - | - |
| 1778068948 | -6.67° C | 92% | 1019.7 hPa | 0 mm | - | - | - |
| 1778063517 | -3.89° C | 90% | 1019.6 hPa | 0 mm | - | - | - |
| 1778062918 | -3.89° C | 90% | 1019.7 hPa | 0 mm | - | - | - |
| 1778062317 | -3.89° C | 90% | 1019.7 hPa | 0 mm | - | - | - |
| 1778061717 | -3.89° C | 90% | 1019.8 hPa | 0 mm | - | - | - |
| 1778061117 | -4.44° C | 91% | 1019.6 hPa | 0 mm | - | - | - |
| 1778060517 | -4.44° C | 91% | 1019.4 hPa | 0 mm | - | - | - |
| 1778059887 | -4.44° C | 90% | 1019.4 hPa | 0 mm | - | - | - |
| 1778059287 | -4.44° C | 90% | 1019.3 hPa | 0 mm | - | - | - |
| 1778058692 | -3.89° C | 90% | 1019.3 hPa | 0 mm | - | - | - |
* Rain latest hour (hover to see other rain measurements)
** Current wind speed in m/s (hover to see current wind gust speed)